ADDS METAR Data INFO
IDs: Format: Raw Decoded Include TAF

Data at: 1956 UTC 18 Feb 2018

KLHB 181935Z AUTO 15006KT 5SM BR OVC004 17/17 A3007 RMK AO2 T01690169
KLHB 181915Z AUTO 14005KT 5SM BR OVC004 16/16 A3008 RMK AO2 T01640164
KLHB 181855Z AUTO 14006KT 5SM BR OVC004 16/16 A3009 RMK AO2 T01600160
KLHB 181835Z AUTO 13005KT 7SM OVC004 16/16 A3010 RMK AO2 T01590159
KLHB 181815Z AUTO 11004KT 7SM OVC004 16/16 A3011 RMK AO2 T01580158
KLHB 181755Z AUTO 12005KT 4SM BR OVC002 15/15 A3012 RMK AO2 60003 T01500150 10150 20108
KLHB 181735Z AUTO 09004KT 3SM BR OVC002 14/14 A3014 RMK AO2 T01400140
KLHB 181715Z AUTO 12004KT 1 3/4SM BR OVC002 14/14 A3015 RMK AO2 T01360136
KLHB 181655Z AUTO 00000KT 2 1/2SM BR OVC002 13/13 A3016 RMK AO2 T01320132
KLHB 181635Z AUTO 00000KT 1 1/2SM BR OVC002 13/13 A3016 RMK AO2 T01280128
KLHB 181615Z AUTO 00000KT 2 1/2SM BR OVC002 13/13 A3016 RMK AO2 T01250125
KLHB 181555Z AUTO 00000KT 1 1/4SM BR OVC002 12/12 A3016 RMK AO2 T01230123
KLHB 181535Z AUTO 00000KT 1 3/4SM BR OVC002 12/12 A3016 RMK AO2 T01210121
KLHB 181515Z AUTO 00000KT 1 1/4SM BR OVC002 12/12 A3015 RMK AO2 T01200120
KLHB 181455Z AUTO 10003KT 1 1/2SM BR OVC004 12/12 A3015 RMK AO2 60003 T01170117
KLHB 181435Z AUTO 00000KT 2 1/2SM BR OVC004 12/12 A3014 RMK AO2 T01160116
KLHB 181415Z AUTO 00000KT 7SM OVC004 12/12 A3014 RMK AO2 T01150115
KLHB 181355Z AUTO 00000KT 7SM OVC006 11/11 A3014 RMK AO2 P0001 T01120112
KLHB 181335Z AUTO 00000KT 7SM OVC006 11/11 A3013 RMK AO2 P0001 T01110111
KLHB 181315Z AUTO 00000KT 5SM BR OVC004 11/11 A3013 RMK AO2 P0001 T01100110
KLHB 181255Z AUTO 00000KT 3SM DZ OVC004 11/11 A3014 RMK AO2 P0002 T01110111
KLHB 181235Z AUTO 00000KT 3SM -DZ OVC004 11/11 A3014 RMK AO2 P0001 T01100110
KLHB 181215Z AUTO 00000KT 3SM BR OVC004 11/11 A3014 RMK AO2 P0001 T01100110
KLHB 181155Z AUTO 00000KT 3SM -DZ OVC006 11/11 A3013 RMK AO2 P0001 60001 70001 T01100110 10111 20103
KLHB 181135Z AUTO 00000KT 4SM BR OVC006 11/11 A3013 RMK AO2 T01080108
KLHB 181115Z AUTO 00000KT 5SM BR OVC006 11/11 A3013 RMK AO2 T01090109
KLHB 181055Z AUTO 00000KT 5SM BR OVC006 11/11 A3014 RMK AO2 T01080108
KLHB 181035Z AUTO 00000KT 7SM BKN006 OVC012 11/11 A3014 RMK AO2 T01080108
KLHB 181015Z AUTO 00000KT 7SM -RA BKN006 BKN012 OVC025 11/11 A3014 RMK AO2 T01080108
KLHB 180955Z AUTO 00000KT 7SM OVC006 11/11 A3014 RMK AO2 T01070107
KLHB 180935Z AUTO 00000KT 10SM BKN006 OVC024 11/11 A3014 RMK AO2 T01070107
KLHB 180915Z AUTO 05003KT 10SM BKN006 OVC026 11/11 A3015 RMK AO2 T01060106
KLHB 180855Z AUTO 00000KT 7SM OVC006 11/11 A3016 RMK AO2 T01050105
KLHB 180835Z AUTO 00000KT 7SM BKN008 OVC014 11/11 A3016 RMK AO2 T01050105
KLHB 180815Z AUTO 00000KT 5SM BR BKN008 OVC016 11/11 A3017 RMK AO2 T01050105
KLHB 180755Z AUTO 04003KT 4SM -RA BKN010 OVC014 11/11 A3017 RMK AO2 T01060106
KLHB 180735Z AUTO 04004KT 7SM SCT010 OVC018 11/11 A3017 RMK AO2 T01100106
KLHB 180715Z AUTO 04003KT 10SM OVC018 11/11 A3017 RMK AO2 T01110105
KLHB 180655Z AUTO 04003KT 10SM OVC023 11/10 A3018 RMK AO2 T01100103
KLHB 180635Z AUTO 04004KT 10SM OVC023 11/11 A3017 RMK AO2 T01100105
KLHB 180615Z AUTO 00000KT 10SM OVC025 11/11 A3018 RMK AO2 T01050105
KLHB 180555Z AUTO 00000KT 10SM SCT025 BKN032 OVC060 10/10 A3018 RMK AO2 T01020102 10115 20081 401350073
KLHB 180535Z AUTO 00000KT 10SM OVC060 10/10 A3018 RMK AO2 T01010101
KLHB 180515Z AUTO 35003KT 10SM OVC060 10/10 A3019 RMK AO2 T01010101
KLHB 180455Z AUTO 34003KT 10SM SCT035 OVC060 10/10 A3018 RMK AO2 T00970097
KLHB 180435Z AUTO 00000KT 7SM OVC060 09/09 A3019 RMK AO2 T00910091
KLHB 180415Z AUTO 00000KT 10SM SCT060 09/09 A3019 RMK AO2 T00900090
KLHB 180355Z AUTO 00000KT 7SM SCT060 08/08 A3019 RMK AO2 T00820082
KLHB 180335Z AUTO 34003KT 7SM CLR 09/09 A3019 RMK AO2 T00860086
KLHB 180315Z AUTO 00000KT 10SM CLR 10/10 A3019 RMK AO2 T01010101
KLHB 180255Z AUTO 00000KT 10SM SCT039 10/10 A3019 RMK AO2 T01030103
KLHB 180235Z AUTO 00000KT 10SM BKN039 11/11 A3019 RMK AO2 T01100110
KLHB 180215Z AUTO 00000KT 10SM OVC039 11/11 A3019 RMK AO2 T01140111
KLHB 180155Z AUTO 00000KT 10SM OVC039 11/11 A3019 RMK AO2 T01140108
KLHB 180135Z AUTO 00000KT 10SM OVC039 11/11 A3018 RMK AO2 T01130110
KLHB 180115Z AUTO 00000KT 10SM OVC037 11/11 A3018 RMK AO2 T01120109
KLHB 180055Z AUTO 00000KT 10SM OVC037 11/11 A3017 RMK AO2 T01110107
KLHB 180035Z AUTO 00000KT 10SM OVC039 11/11 A3017 RMK AO2 T01100107
KLHB 180015Z AUTO 00000KT 10SM OVC039 11/11 A3016 RMK AO2 T01100108
KLHB 172355Z AUTO 00000KT 10SM SCT008 OVC039 11/11 A3016 RMK AO2 T01100109 10135 20108
KLHB 172335Z AUTO 00000KT 7SM SCT032 OVC041 11/11 A3016 RMK AO2 T01100108
KLHB 172315Z AUTO 00000KT 10SM SCT032 OVC039 11/11 A3015 RMK AO2 T01100107
KLHB 172255Z AUTO 00000KT 7SM SCT007 SCT025 OVC039 11/11 A3016 RMK AO2 T01100106
KLHB 172235Z AUTO 06003KT 7SM SCT025 OVC041 11/11 A3015 RMK AO2 T01100108
KLHB 172215Z AUTO 00000KT 4SM -DZ SCT019 BKN031 OVC039 11/10 A3015 RMK AO2 T01100103
KLHB 172155Z AUTO 00000KT 5SM -RA SCT026 OVC031 11/10 A3015 RMK AO2 T01110095
KLHB 172135Z AUTO 00000KT 5SM HZ OVC025 12/08 A3014 RMK AO2 T01220082
KLHB 172115Z AUTO 00000KT 10SM OVC023 13/08 A3014 RMK AO2 T01250078
KLHB 172055Z AUTO 02003KT 10SM OVC023 13/08 A3014 RMK AO2 T01250077
KLHB 172035Z AUTO 35006KT 10SM OVC023 13/08 A3015 RMK AO2 T01250078
KLHB 172015Z AUTO 35007KT 10SM OVC023 13/08 A3015 RMK AO2 T01250077
KLHB 171955Z AUTO 36006KT 10SM OVC021 12/08 A3014 RMK AO2 T01210076
KLHB 171935Z AUTO 01007KT 10SM OVC019 12/08 A3015 RMK AO2 T01230078
KLHB 171915Z AUTO 36006KT 10SM OVC019 13/08 A3015 RMK AO2 T01250080
KLHB 171855Z AUTO 35006KT 10SM OVC021 13/08 A3015 RMK AO2 T01290081
KLHB 171835Z AUTO 34005KT 10SM OVC021 13/08 A3014 RMK AO2 T01320079
KLHB 171815Z AUTO 33004KT 10SM OVC021 13/08 A3015 RMK AO2 T01270076
KLHB 171755Z AUTO 33006KT 10SM BKN021 OVC085 12/07 A3017 RMK AO2 T01190072 10119 20073
KLHB 171735Z AUTO 00000KT 10SM BKN021 BKN085 11/07 A3017 RMK AO2 T01110072
KLHB 171715Z AUTO 00000KT 10SM SCT085 10/07 A3016 RMK AO2 T01030069
KLHB 171655Z AUTO 00000KT 10SM SCT075 BKN090 09/07 A3016 RMK AO2 T00900067
KLHB 171635Z AUTO 11007KT 10SM SCT019 SCT050 OVC075 08/07 A3015 RMK AO2 T00840065
KLHB 171615Z AUTO 05004G09KT 10SM BKN009 OVC019 08/07 A3018 RMK AO2 T00800066
KLHB 171555Z AUTO 35009KT 10SM OVC009 08/07 A3021 RMK AO2 T00770066
KLHB 171535Z AUTO 33013KT 7SM OVC009 08/07 A3020 RMK AO2 T00760068
KLHB 171515Z AUTO 33011KT 5SM BR OVC007 07/07 A3019 RMK AO2 T00740073
KLHB 171455Z AUTO 33010KT 3SM BR OVC009 08/08 A3017 RMK AO2 T00750075
KLHB 171435Z AUTO 34013KT 7SM OVC013 08/07 A3017 RMK AO2 T00840066
KLHB 171415Z AUTO 31011KT 7SM OVC013 09/06 A3016 RMK AO2 T00850063
KLHB 171355Z AUTO 33008KT 7SM OVC015 09/06 A3014 RMK AO2 T00900061
KLHB 171335Z AUTO 33009KT 10SM OVC017 09/06 A3013 RMK AO2 T00920055
KLHB 171315Z AUTO 33011KT 10SM OVC017 10/05 A3013 RMK AO2 T00990050
KLHB 171255Z AUTO 32010KT 10SM OVC017 10/05 A3012 RMK AO2 T01020049
KLHB 171235Z AUTO 32007KT 10SM OVC017 11/06 A3012 RMK AO2 T01050056
KLHB 171215Z AUTO 32011G15KT 10SM OVC017 11/06 A3012 RMK AO2 T01060056
KLHB 171155Z AUTO 31008KT 10SM OVC017 11/06 A3010 RMK AO2 T01100057 10126 20110
KLHB 171135Z AUTO 32008KT 10SM OVC017 11/07 A3010 RMK AO2 T01110065
KLHB 171115Z AUTO 31010KT 10SM -RA OVC017 12/07 A3009 RMK AO2 T01170070
KLHB 171055Z AUTO 32005KT 10SM OVC019 12/07 A3007 RMK AO2 T01210067
KLHB 171035Z AUTO 31004KT 10SM OVC019 12/07 A3006 RMK AO2 T01210067
KLHB 171015Z AUTO 32004KT 10SM BKN017 OVC023 12/07 A3005 RMK AO2 T01210071
KLHB 170955Z AUTO 30004KT 10SM OVC017 12/07 A3005 RMK AO2 T01220070
KLHB 170935Z AUTO 00000KT 10SM BKN019 BKN036 OVC045 12/07 A3005 RMK AO2 T01240071
KLHB 170915Z AUTO 00000KT 10SM BKN015 BKN036 OVC043 12/07 A3005 RMK AO2 T01240067
KLHB 170855Z AUTO 00000KT 10SM OVC015 13/07 A3005 RMK AO2 T01250065
KLHB 170835Z AUTO 00000KT 10SM OVC015 12/07 A3006 RMK AO2 T01230065
KLHB 170815Z AUTO 00000KT 10SM OVC015 12/07 A3006 RMK AO2 T01220065